Aviation Digital Data Service (ADDS)

Output produced by METARs form (0429 UTC 26 May 2018)
found at http://www.aviationweather.gov/adds/metars/
 
FABL 260300Z AUTO 21003KT 180V250 8000 ///////// 02/01 Q1023
TAF FABL 260400Z 2606/2706 33005KT CAVOK TX22/2612Z TN03/2703Z
       
FACT 260400Z 04002KT CAVOK 06/06 Q1020 NOSIG
TAF FACT 252200Z 2600/2706 VRB04KT CAVOK 
     PROB30 
     TEMPO 2600/2607 2000 MIFG NSC 
     PROB30 
     TEMPO 2702/2706 2000 MIFG NSC TX20/2612Z TN08/2706Z
       
FAEL 260400Z 28007KT 9999 SCT045 15/11 Q1022
FAGG 260400Z 33002KT CAVOK 08/07 Q1021
TAF FAGG 260400Z 2606/2706 VRB04KT 9999 FEW035 
     BECMG 2609/2611 13010KT 
     BECMG 2618/2620 VRB03KT TX19/2612Z TN09/2706Z
       
FAHS 260400Z AUTO 26001KT //// // ////// ///// Q1020
FAKM 260400Z 00000KT CAVOK 03/M00 Q1022
FALW 260400Z AUTO 24001KT //// // ////// ///// Q1019
FALA 260400Z 00000KT CAVOK 07/00 Q1024 NOSIG
TAF FALA 252200Z 2600/2624 VRB02KT CAVOK 
     BECMG 2606/2608 09005KT 
     BECMG 2609/2611 36006KT 
     BECMG 2612/2613 28005KT 
     BECMG 2621/2623 VRB03KT TX25/2613Z TN08/2604Z
       
FAMM 260400Z 15003KT CAVOK 07/M00 Q1023 NOSIG
FAOB 260400Z AUTO 04003KT //// // ////// 10/09 Q1021
FAPN 260400Z AUTO 01003KT //// // ////// 11/06 Q1021
FAPE 260400Z 27003KT CAVOK 10/10 Q1023 NOSIG
TAF FAPE 252200Z 2600/2624 26007KT 9999 BKN030 
     PROB40 
     TEMPO 2600/2603 VRB03KT 3000 BR BKN008 
     TEMPO 2603/2609 VRB03KT 4500 SHRA BKN014 SCT030TCU 
     BECMG 2610/2612 07005KT 9999 SCT030 
     BECMG 2615/2617 13007KT CAVOK 
     BECMG 2619/2621 02005KT TX20/2612Z TN12/2604Z
       
FAUT 260400Z 12001KT 7000 FEW008 BKN012 12/11 Q1022
FAUP 260400Z 14001KT CAVOK 06/04 Q1020 NOSIG
TAF FAUP 260400Z 2606/2706 16005KT CAVOK TX23/2613Z TN08/2703Z
       
FAWK 260400Z AUTO 17003KT //// // ////// ///// Q1024
FAWB 260400Z AUTO 03001KT //// // ////// 07/03 Q1022